createdAt,value
2023-06-28T00:02:16.471Z,43.26
2023-06-28T00:04:43.040Z,43.53
2023-06-28T00:07:10.230Z,43.72
2023-06-28T00:09:36.957Z,43.54
2023-06-28T00:12:04.230Z,44.16
2023-06-28T00:14:30.803Z,43.79
2023-06-28T00:16:57.324Z,43.88
2023-06-28T00:19:27.805Z,43.80
2023-06-28T00:21:58.182Z,44.10
2023-06-28T00:24:24.747Z,44.28
2023-06-28T00:26:51.387Z,44.00
2023-06-28T00:29:17.892Z,43.60
2023-06-28T00:31:44.524Z,43.84
2023-06-28T00:34:11.098Z,44.50
2023-06-28T00:36:37.699Z,44.03
2023-06-28T00:39:04.991Z,44.09
2023-06-28T00:41:31.542Z,44.21
2023-06-28T00:43:58.163Z,44.70
2023-06-28T00:46:24.693Z,44.81
2023-06-28T00:48:51.329Z,45.55
2023-06-28T00:51:18.113Z,45.30
2023-06-28T00:53:44.772Z,46.03
2023-06-28T00:56:11.378Z,46.02
2023-06-28T00:58:37.934Z,46.71
2023-06-28T01:01:04.462Z,46.26
2023-06-28T01:03:31.161Z,46.09
2023-06-28T01:05:59.930Z,46.05
2023-06-28T01:08:27.476Z,46.05
2023-06-28T01:10:54.723Z,45.88
2023-06-28T01:13:21.751Z,46.06
2023-06-28T01:15:48.318Z,45.96
2023-06-28T01:18:17.341Z,46.76
2023-06-28T01:20:44.094Z,47.02
2023-06-28T01:23:10.908Z,46.99
2023-06-28T01:25:37.543Z,46.78
2023-06-28T01:28:04.315Z,46.67
2023-06-28T01:30:31.089Z,46.37
2023-06-28T01:32:57.760Z,46.63
2023-06-28T01:35:24.434Z,46.95
2023-06-28T01:37:51.977Z,47.36
2023-06-28T01:40:18.740Z,47.74
2023-06-28T01:42:45.566Z,48.13
2023-06-28T01:45:12.353Z,48.36
2023-06-28T01:47:39.700Z,47.96
2023-06-28T01:50:07.929Z,48.30
2023-06-28T01:52:34.542Z,47.83
2023-06-28T01:55:01.161Z,47.97
2023-06-28T01:57:27.840Z,47.76
2023-06-28T01:59:56.153Z,47.64
2023-06-28T02:02:23.111Z,46.98
2023-06-28T02:04:49.705Z,47.95
2023-06-28T02:07:16.433Z,47.98
2023-06-28T02:09:43.107Z,48.05
2023-06-28T02:12:09.804Z,48.10
2023-06-28T02:14:36.600Z,47.77
2023-06-28T02:17:03.403Z,48.15
2023-06-28T02:19:34.417Z,48.22
2023-06-28T02:22:01.233Z,48.36
2023-06-28T02:24:27.780Z,48.21
2023-06-28T02:26:54.894Z,48.69
2023-06-28T02:29:21.576Z,48.57
2023-06-28T02:31:48.118Z,48.43
2023-06-28T02:34:14.719Z,48.23
2023-06-28T02:36:41.396Z,48.23
2023-06-28T02:39:07.946Z,48.24
2023-06-28T02:41:34.532Z,48.41
2023-06-28T02:44:01.089Z,48.68
2023-06-28T02:46:27.757Z,48.54
2023-06-28T02:48:54.302Z,48.88
2023-06-28T02:51:20.855Z,48.75
2023-06-28T02:53:47.446Z,48.80
2023-06-28T02:56:16.415Z,48.92
2023-06-28T02:58:43.572Z,49.59
2023-06-28T03:01:11.166Z,49.13
2023-06-28T03:03:38.378Z,49.67
2023-06-28T03:06:06.050Z,49.38
2023-06-28T03:08:32.603Z,48.92
2023-06-28T03:11:00.129Z,49.05
2023-06-28T03:13:26.650Z,49.32
2023-06-28T03:15:53.171Z,48.96
2023-06-28T03:18:19.785Z,48.48
2023-06-28T03:20:46.291Z,48.98
2023-06-28T03:23:12.959Z,49.03
2023-06-28T03:25:39.466Z,49.42
2023-06-28T03:28:06.050Z,49.67
2023-06-28T03:30:32.687Z,49.34
2023-06-28T03:32:59.248Z,49.65
2023-06-28T03:35:25.882Z,49.38
2023-06-28T03:37:53.574Z,49.33
2023-06-28T03:40:20.495Z,49.22
2023-06-28T03:42:48.897Z,48.61
2023-06-28T03:45:16.424Z,49.02
2023-06-28T03:47:43.058Z,49.01
2023-06-28T03:50:09.886Z,49.26
2023-06-28T03:52:37.148Z,49.18
2023-06-28T03:55:04.577Z,49.42
2023-06-28T03:57:31.173Z,49.51
2023-06-28T03:59:57.694Z,49.14
2023-06-28T04:02:24.495Z,49.02
2023-06-28T04:04:51.048Z,48.88
2023-06-28T04:07:17.679Z,49.52
2023-06-28T04:09:44.479Z,48.96
2023-06-28T04:12:11.193Z,48.85
2023-06-28T04:14:38.026Z,48.83
2023-06-28T04:17:04.578Z,48.39
2023-06-28T04:19:31.097Z,48.30
2023-06-28T04:21:58.206Z,48.57
2023-06-28T04:24:25.559Z,48.49
2023-06-28T04:26:52.091Z,48.50
2023-06-28T04:29:19.918Z,48.45
2023-06-28T04:31:48.089Z,48.12
2023-06-28T04:34:15.826Z,48.21
2023-06-28T04:36:42.396Z,48.19
2023-06-28T04:39:08.912Z,48.25
2023-06-28T04:41:35.549Z,48.23
2023-06-28T04:44:02.087Z,48.38
2023-06-28T04:46:28.695Z,47.82
2023-06-28T04:48:56.994Z,48.14
2023-06-28T04:51:23.796Z,47.31
2023-06-28T04:53:50.751Z,47.57
2023-06-28T04:56:17.476Z,47.74
2023-06-28T04:58:44.181Z,47.04
2023-06-28T05:01:10.721Z,47.25
2023-06-28T05:03:40.071Z,47.49
2023-06-28T05:06:10.090Z,47.65
2023-06-28T05:08:36.748Z,47.53
2023-06-28T05:11:03.575Z,47.45
2023-06-28T05:13:30.118Z,47.59
2023-06-28T05:15:56.710Z,47.29
2023-06-28T05:18:23.539Z,48.00
2023-06-28T05:20:50.741Z,47.55
2023-06-28T05:23:18.878Z,47.94
2023-06-28T05:25:46.342Z,49.08
2023-06-28T05:28:14.250Z,48.17
2023-06-28T05:30:42.422Z,47.94
2023-06-28T05:33:10.405Z,48.09
2023-06-28T05:35:37.732Z,48.37
2023-06-28T05:38:05.469Z,48.63
2023-06-28T05:40:33.511Z,48.27
2023-06-28T05:43:00.179Z,48.10
2023-06-28T05:45:27.478Z,48.03
2023-06-28T05:47:54.659Z,48.05
2023-06-28T05:50:24.606Z,47.13
2023-06-28T05:52:51.618Z,47.04
2023-06-28T05:55:18.418Z,46.77
2023-06-28T05:57:46.132Z,46.60
2023-06-28T06:00:13.452Z,46.69
2023-06-28T06:02:41.011Z,46.60
2023-06-28T06:05:08.469Z,46.30
2023-06-28T06:07:37.167Z,47.12
2023-06-28T06:10:04.485Z,46.67
2023-06-28T06:12:31.012Z,45.36
2023-06-28T06:14:58.282Z,44.80
2023-06-28T06:17:25.010Z,44.65
2023-06-28T06:19:51.787Z,43.61
2023-06-28T06:22:18.300Z,43.17
2023-06-28T06:24:44.954Z,42.74
2023-06-28T06:27:11.513Z,42.21
2023-06-28T06:29:38.242Z,43.60
2023-06-28T06:32:05.109Z,42.46
2023-06-28T06:34:31.654Z,42.53
2023-06-28T06:36:58.422Z,43.06
2023-06-28T06:39:25.069Z,43.21
2023-06-28T06:41:51.769Z,42.25
2023-06-28T06:44:18.321Z,41.47
2023-06-28T06:46:45.551Z,40.91
2023-06-28T06:49:12.200Z,41.23
2023-06-28T06:51:38.743Z,40.01
2023-06-28T06:54:05.924Z,40.33
2023-06-28T06:56:32.528Z,40.44
2023-06-28T06:58:59.154Z,39.50
2023-06-28T07:01:25.960Z,39.75
2023-06-28T07:03:53.419Z,39.60
2023-06-28T07:06:19.971Z,39.04
2023-06-28T07:08:47.065Z,38.46
2023-06-28T07:11:13.885Z,39.35
2023-06-28T07:13:40.473Z,40.07
2023-06-28T07:16:07.287Z,40.10
2023-06-28T07:18:34.112Z,38.89
2023-06-28T07:21:00.992Z,40.93
2023-06-28T07:23:27.567Z,39.09
2023-06-28T07:25:54.077Z,39.15
2023-06-28T07:28:20.662Z,38.48
2023-06-28T07:30:55.174Z,37.75
2023-06-28T07:33:23.351Z,38.74
2023-06-28T07:35:50.764Z,40.51
2023-06-28T07:38:19.251Z,39.41
2023-06-28T07:40:49.636Z,41.14
2023-06-28T07:43:17.939Z,40.93
2023-06-28T07:45:44.869Z,39.28
2023-06-28T07:48:12.163Z,39.64
2023-06-28T07:50:41.427Z,37.96
2023-06-28T07:53:07.972Z,38.33
2023-06-28T07:55:34.496Z,38.79
2023-06-28T07:58:01.320Z,38.26
2023-06-28T08:00:28.026Z,38.06
2023-06-28T08:02:54.685Z,38.58
2023-06-28T08:05:21.481Z,38.64
2023-06-28T08:07:48.879Z,39.43
2023-06-28T08:10:15.533Z,38.58
2023-06-28T08:12:42.133Z,39.95
2023-06-28T08:15:09.258Z,38.99
2023-06-28T08:17:35.878Z,38.22
2023-06-28T08:20:02.603Z,38.64
2023-06-28T08:22:29.234Z,37.13
2023-06-28T08:24:56.012Z,36.50
2023-06-28T08:27:22.940Z,35.71
2023-06-28T08:29:49.561Z,36.46
2023-06-28T08:32:16.207Z,35.58
2023-06-28T08:34:43.110Z,33.78
2023-06-28T08:37:09.862Z,35.34
2023-06-28T08:39:41.132Z,33.14
2023-06-28T08:42:08.001Z,30.64
2023-06-28T08:44:34.711Z,30.43
2023-06-28T08:47:01.949Z,33.49
2023-06-28T08:49:32.514Z,34.16
2023-06-28T08:51:59.170Z,33.18
2023-06-28T08:54:29.426Z,31.49
2023-06-28T08:57:11.296Z,30.81
2023-06-28T08:59:39.572Z,33.32
2023-06-28T09:02:08.772Z,31.86
2023-06-28T09:04:35.545Z,32.43
2023-06-28T09:07:02.679Z,30.91
2023-06-28T09:09:29.719Z,31.25
2023-06-28T09:11:56.578Z,33.42
2023-06-28T09:14:23.109Z,35.96
2023-06-28T09:16:49.635Z,34.15
2023-06-28T09:19:16.231Z,35.18
2023-06-28T09:21:43.112Z,34.94
2023-06-28T09:24:13.618Z,33.59
2023-06-28T09:26:44.352Z,33.34
2023-06-28T09:29:16.125Z,34.37
2023-06-28T09:31:46.917Z,34.65
2023-06-28T09:34:13.816Z,35.80
2023-06-28T09:36:41.165Z,34.29
2023-06-28T09:39:10.784Z,37.03
2023-06-28T09:41:38.543Z,34.26
2023-06-28T09:44:06.746Z,34.29
2023-06-28T09:46:33.993Z,32.35
2023-06-28T09:49:00.896Z,30.43
2023-06-28T09:51:28.058Z,30.47
2023-06-28T09:53:55.687Z,30.14
2023-06-28T09:56:29.128Z,32.19
2023-06-28T09:58:56.062Z,33.08
2023-06-28T10:01:24.913Z,33.67
2023-06-28T10:03:52.776Z,34.10
2023-06-28T10:06:20.338Z,36.83
2023-06-28T10:08:47.257Z,37.59
2023-06-28T10:11:15.744Z,37.06
2023-06-28T10:13:43.639Z,36.74
2023-06-28T10:16:19.552Z,35.92
2023-06-28T10:18:46.373Z,34.32
2023-06-28T10:21:13.125Z,31.47
2023-06-28T10:23:40.653Z,26.36
2023-06-28T10:26:07.343Z,25.08
2023-06-28T10:28:35.600Z,25.10
2023-06-28T10:31:05.989Z,25.77
2023-06-28T10:33:33.449Z,27.42
2023-06-28T10:36:03.940Z,26.85
2023-06-28T10:38:38.410Z,30.22
2023-06-28T10:41:06.466Z,31.27
2023-06-28T10:43:33.603Z,32.45
2023-06-28T10:46:00.260Z,31.19
2023-06-28T10:48:30.648Z,30.60
2023-06-28T10:51:02.440Z,30.24
2023-06-28T10:53:29.861Z,28.46
2023-06-28T10:56:10.213Z,28.60
2023-06-28T10:58:44.670Z,28.80
2023-06-28T11:01:13.636Z,28.93
2023-06-28T11:03:44.717Z,28.00
2023-06-28T11:06:15.208Z,24.37
2023-06-28T11:08:46.221Z,22.13
2023-06-28T11:11:23.949Z,24.88
2023-06-28T11:13:50.709Z,27.30
2023-06-28T11:16:19.224Z,26.82
2023-06-28T11:18:47.444Z,31.21
2023-06-28T11:21:24.993Z,31.67
2023-06-28T11:23:56.691Z,29.39
2023-06-28T11:26:35.069Z,29.15
2023-06-28T11:29:02.091Z,29.11
2023-06-28T11:31:34.734Z,29.41
2023-06-28T11:34:01.596Z,30.70
2023-06-28T11:36:29.448Z,30.72
2023-06-28T11:38:56.815Z,31.93
2023-06-28T11:41:23.427Z,33.55
2023-06-28T11:43:50.155Z,32.03
2023-06-28T11:46:21.421Z,32.41
2023-06-28T11:48:49.391Z,32.79
2023-06-28T11:51:16.384Z,35.62
2023-06-28T11:53:48.147Z,33.35
2023-06-28T11:56:14.761Z,33.52
2023-06-28T11:58:41.690Z,33.49
2023-06-28T12:01:20.545Z,33.58
2023-06-28T12:03:47.234Z,33.71
2023-06-28T12:06:14.076Z,33.36
2023-06-28T12:08:41.791Z,33.31
2023-06-28T12:11:10.503Z,35.68
2023-06-28T12:13:37.611Z,36.23
2023-06-28T12:16:15.675Z,35.43
2023-06-28T12:19:00.355Z,35.66
2023-06-28T12:21:29.028Z,34.23
2023-06-28T12:24:13.532Z,35.68
2023-06-28T12:26:40.994Z,34.51
2023-06-28T12:29:08.777Z,32.85
2023-06-28T12:31:43.288Z,33.19
2023-06-28T12:34:10.378Z,32.75
2023-06-28T12:36:40.234Z,32.07
2023-06-28T12:39:08.619Z,32.22
2023-06-28T12:41:35.372Z,33.25
2023-06-28T12:44:02.049Z,32.73
2023-06-28T12:46:31.194Z,32.95
2023-06-28T12:49:04.128Z,33.86
2023-06-28T12:51:30.789Z,36.62
2023-06-28T12:53:57.720Z,35.31
2023-06-28T12:56:24.329Z,37.99
2023-06-28T12:58:50.932Z,35.24
2023-06-28T13:01:17.531Z,37.33
2023-06-28T13:03:44.176Z,35.09
2023-06-28T13:06:10.822Z,35.60
2023-06-28T13:08:37.445Z,36.18
2023-06-28T13:11:04.047Z,34.57
2023-06-28T13:13:31.080Z,36.16
2023-06-28T13:15:57.734Z,36.60
2023-06-28T13:18:24.587Z,33.79
2023-06-28T13:20:51.278Z,34.84
2023-06-28T13:23:17.844Z,37.52
2023-06-28T13:25:44.793Z,36.90
2023-06-28T13:28:11.625Z,38.44
2023-06-28T13:30:38.305Z,37.64
2023-06-28T13:33:04.878Z,39.52
2023-06-28T13:35:31.583Z,38.47
2023-06-28T13:37:58.168Z,38.40
2023-06-28T13:40:25.318Z,37.58
2023-06-28T13:42:51.980Z,37.79
2023-06-28T13:45:18.593Z,37.78
2023-06-28T13:47:45.329Z,37.76
2023-06-28T13:50:12.449Z,37.23
2023-06-28T13:52:39.036Z,39.25
2023-06-28T13:55:06.344Z,39.75
2023-06-28T13:57:33.231Z,39.30
2023-06-28T14:00:00.495Z,38.75
2023-06-28T14:02:27.755Z,38.95
2023-06-28T14:04:54.506Z,41.11
2023-06-28T14:07:21.259Z,40.54
2023-06-28T14:09:47.878Z,40.38
2023-06-28T14:12:14.929Z,40.48
2023-06-28T14:14:42.661Z,38.16
2023-06-28T14:17:09.394Z,36.66
2023-06-28T14:19:36.032Z,35.59
2023-06-28T14:22:02.597Z,41.00
2023-06-28T14:24:29.197Z,38.79
2023-06-28T14:26:55.776Z,39.05
2023-06-28T14:29:22.362Z,37.84
2023-06-28T14:31:48.942Z,37.56
2023-06-28T14:34:15.540Z,38.13
2023-06-28T14:36:42.114Z,37.13
2023-06-28T14:39:08.774Z,36.66
2023-06-28T14:41:35.388Z,35.33
2023-06-28T14:44:01.949Z,35.52
2023-06-28T14:46:28.762Z,36.11
2023-06-28T14:48:59.430Z,36.89
2023-06-28T14:51:26.103Z,37.87
2023-06-28T14:53:52.718Z,37.23
2023-06-28T14:56:19.316Z,38.10
2023-06-28T14:58:45.873Z,38.58
2023-06-28T15:01:12.447Z,37.94
2023-06-28T15:03:39.140Z,38.24
2023-06-28T15:06:06.243Z,39.14
2023-06-28T15:08:33.202Z,38.59
2023-06-28T15:11:00.622Z,38.84
2023-06-28T15:13:27.565Z,39.14
2023-06-28T15:15:54.805Z,38.22
2023-06-28T15:18:21.665Z,38.65
2023-06-28T15:20:48.451Z,37.80
2023-06-28T15:23:15.903Z,40.09
2023-06-28T15:25:43.210Z,37.25
2023-06-28T15:28:11.254Z,36.81
2023-06-28T15:30:37.896Z,37.53
2023-06-28T15:33:04.593Z,37.29
2023-06-28T15:35:31.226Z,36.76
2023-06-28T15:37:57.987Z,38.20
2023-06-28T15:40:25.335Z,39.17
2023-06-28T15:42:51.986Z,38.40
2023-06-28T15:45:20.100Z,35.53
2023-06-28T15:47:46.675Z,36.34
2023-06-28T15:50:13.367Z,34.98
2023-06-28T15:52:40.121Z,34.54
2023-06-28T15:55:07.260Z,34.71
2023-06-28T15:57:33.944Z,34.94
2023-06-28T16:00:00.586Z,35.68
2023-06-28T16:02:27.446Z,34.94
2023-06-28T16:04:54.900Z,33.99
2023-06-28T16:07:21.750Z,36.85
2023-06-28T16:09:48.757Z,38.10
2023-06-28T16:12:15.401Z,36.61
2023-06-28T16:14:41.994Z,35.53
2023-06-28T16:17:08.738Z,36.49
2023-06-28T16:19:35.355Z,36.59
2023-06-28T16:22:01.953Z,36.13
2023-06-28T16:24:28.912Z,36.86
2023-06-28T16:26:55.544Z,37.54
2023-06-28T16:29:23.043Z,36.34
2023-06-28T16:31:49.646Z,37.31
2023-06-28T16:34:16.508Z,36.18
2023-06-28T16:36:43.368Z,35.64
2023-06-28T16:39:10.919Z,37.34
2023-06-28T16:41:37.622Z,38.01
2023-06-28T16:44:04.259Z,37.10
2023-06-28T16:46:30.899Z,37.74
2023-06-28T16:48:57.496Z,38.62
2023-06-28T16:51:24.080Z,39.12
2023-06-28T16:53:50.712Z,39.42
2023-06-28T16:56:17.301Z,40.15
2023-06-28T16:58:43.940Z,39.55
2023-06-28T17:01:10.621Z,39.83
2023-06-28T17:03:42.047Z,39.53
2023-06-28T17:06:09.583Z,39.84
2023-06-28T17:08:36.240Z,41.29
2023-06-28T17:11:04.520Z,40.90
2023-06-28T17:13:31.589Z,40.82
2023-06-28T17:15:59.829Z,40.36
2023-06-28T17:18:26.894Z,41.08
2023-06-28T17:20:54.264Z,41.12
2023-06-28T17:23:22.557Z,40.42
2023-06-28T17:25:49.644Z,41.11
2023-06-28T17:28:16.501Z,39.99
2023-06-28T17:30:43.292Z,39.64
2023-06-28T17:33:10.011Z,39.35
2023-06-28T17:35:36.868Z,38.86
2023-06-28T17:38:03.685Z,39.00
2023-06-28T17:40:30.365Z,39.31
2023-06-28T17:42:56.956Z,39.57
2023-06-28T17:45:23.540Z,39.40
2023-06-28T17:47:50.148Z,39.20
2023-06-28T17:50:16.893Z,38.66
2023-06-28T17:52:43.647Z,40.00
2023-06-28T17:55:10.744Z,40.41
2023-06-28T17:57:37.340Z,39.55
2023-06-28T18:00:05.607Z,38.85
2023-06-28T18:02:32.683Z,38.18
2023-06-28T18:04:59.268Z,38.28
2023-06-28T18:07:25.958Z,38.64
2023-06-28T18:09:52.872Z,39.17
2023-06-28T18:12:19.632Z,39.74
2023-06-28T18:14:46.257Z,39.69
2023-06-28T18:17:13.609Z,39.69
2023-06-28T18:19:43.225Z,40.61
2023-06-28T18:22:10.078Z,40.52
2023-06-28T18:24:36.856Z,40.12
2023-06-28T18:27:03.651Z,39.76
2023-06-28T18:29:30.502Z,39.89
2023-06-28T18:31:57.188Z,39.53
2023-06-28T18:34:23.797Z,39.33
2023-06-28T18:36:50.380Z,39.27
2023-06-28T18:39:20.030Z,38.64
2023-06-28T18:41:46.684Z,40.08
2023-06-28T18:44:13.325Z,39.81
2023-06-28T18:46:40.143Z,40.10
2023-06-28T18:49:08.789Z,39.63
2023-06-28T18:51:37.174Z,39.97
2023-06-28T18:54:05.351Z,40.41
2023-06-28T18:56:32.527Z,39.82
2023-06-28T18:59:00.981Z,39.65
2023-06-28T19:01:27.718Z,39.42
2023-06-28T19:03:54.506Z,39.84
2023-06-28T19:06:21.681Z,40.71
2023-06-28T19:08:48.960Z,40.32
2023-06-28T19:11:15.741Z,40.23
2023-06-28T19:13:42.351Z,40.40
2023-06-28T19:16:09.383Z,40.67
2023-06-28T19:18:36.495Z,40.62
2023-06-28T19:21:03.369Z,40.46
2023-06-28T19:23:30.070Z,42.37
2023-06-28T19:25:56.768Z,41.80
2023-06-28T19:28:23.455Z,42.26
2023-06-28T19:30:50.147Z,41.83
2023-06-28T19:33:16.973Z,41.54
2023-06-28T19:35:44.406Z,41.65
2023-06-28T19:38:12.393Z,41.95
2023-06-28T19:40:39.119Z,42.19
2023-06-28T19:43:05.680Z,42.07
2023-06-28T19:45:32.267Z,42.16
2023-06-28T19:47:58.888Z,42.10
2023-06-28T19:50:26.087Z,41.92
2023-06-28T19:52:52.971Z,42.16
2023-06-28T19:55:19.842Z,42.29
2023-06-28T19:57:46.613Z,42.29
2023-06-28T20:00:14.873Z,42.04
2023-06-28T20:02:42.721Z,41.76
2023-06-28T20:05:09.726Z,42.12
2023-06-28T20:07:37.174Z,42.69
2023-06-28T20:10:04.172Z,43.13
2023-06-28T20:12:30.727Z,42.93
2023-06-28T20:14:57.339Z,42.70
2023-06-28T20:17:23.985Z,42.86
2023-06-28T20:19:50.565Z,42.89
2023-06-28T20:22:17.254Z,43.46
2023-06-28T20:24:43.853Z,43.10
2023-06-28T20:27:10.678Z,43.28
2023-06-28T20:29:37.357Z,43.14
2023-06-28T20:32:04.419Z,43.94
2023-06-28T20:34:31.261Z,43.76
2023-06-28T20:36:57.897Z,43.47
2023-06-28T20:39:24.534Z,43.20
2023-06-28T20:41:51.460Z,43.48
2023-06-28T20:44:18.207Z,43.74
2023-06-28T20:46:44.987Z,44.68
2023-06-28T20:49:12.596Z,45.01
2023-06-28T20:51:39.266Z,45.71
2023-06-28T20:54:05.899Z,44.88
2023-06-28T20:56:32.597Z,45.11
2023-06-28T20:58:59.291Z,45.55
2023-06-28T21:01:27.672Z,45.47
2023-06-28T21:03:55.329Z,46.03
2023-06-28T21:06:22.112Z,46.36
2023-06-28T21:08:48.855Z,46.90
2023-06-28T21:11:16.632Z,46.85
2023-06-28T21:13:43.521Z,46.87
2023-06-28T21:16:10.226Z,47.09
2023-06-28T21:18:37.101Z,47.00
2023-06-28T21:21:03.791Z,46.88
2023-06-28T21:23:30.823Z,46.72
2023-06-28T21:25:57.464Z,46.49
2023-06-28T21:28:24.102Z,46.15
2023-06-28T21:30:50.666Z,45.88
2023-06-28T21:33:17.274Z,46.13
2023-06-28T21:35:44.184Z,45.97
2023-06-28T21:38:11.008Z,46.24
2023-06-28T21:40:37.864Z,46.05
2023-06-28T21:43:04.596Z,46.37
2023-06-28T21:45:31.240Z,46.24
2023-06-28T21:47:58.112Z,46.43
2023-06-28T21:50:24.834Z,46.34
2023-06-28T21:52:51.412Z,46.16
2023-06-28T21:55:18.006Z,46.11
2023-06-28T21:57:44.561Z,46.23
2023-06-28T22:00:22.766Z,46.41
2023-06-28T22:02:52.919Z,47.20
2023-06-28T22:05:19.854Z,46.86
2023-06-28T22:07:46.501Z,46.22
2023-06-28T22:10:13.232Z,46.50
2023-06-28T22:12:40.389Z,46.52
2023-06-28T22:15:07.605Z,46.54
2023-06-28T22:17:35.887Z,46.37
2023-06-28T22:20:05.114Z,47.10
2023-06-28T22:22:32.327Z,47.60
2023-06-28T22:24:59.071Z,47.55
2023-06-28T22:27:25.843Z,46.92
2023-06-28T22:29:53.304Z,46.83
2023-06-28T22:32:20.036Z,46.52
2023-06-28T22:34:47.137Z,47.51
2023-06-28T22:37:13.770Z,47.33
2023-06-28T22:39:40.656Z,47.62
2023-06-28T22:42:09.311Z,47.64
2023-06-28T22:44:37.210Z,48.07
2023-06-28T22:47:04.752Z,47.97
2023-06-28T22:49:33.050Z,48.31
2023-06-28T22:52:00.404Z,48.27
2023-06-28T22:54:27.970Z,48.37
2023-06-28T22:56:55.729Z,48.20
2023-06-28T22:59:22.790Z,48.61
2023-06-28T23:01:49.495Z,48.66
2023-06-28T23:04:16.129Z,48.95
2023-06-28T23:06:42.957Z,48.60
2023-06-28T23:09:10.285Z,48.64
2023-06-28T23:11:36.957Z,49.13
2023-06-28T23:14:04.104Z,49.96
2023-06-28T23:16:33.653Z,49.84
2023-06-28T23:19:02.829Z,49.76
2023-06-28T23:21:34.647Z,49.29
2023-06-28T23:24:03.707Z,49.99
2023-06-28T23:26:31.137Z,50.35
2023-06-28T23:28:58.293Z,50.71
2023-06-28T23:31:25.330Z,51.12
2023-06-28T23:33:52.829Z,50.11
2023-06-28T23:36:19.572Z,50.74
2023-06-28T23:38:46.294Z,50.51
2023-06-28T23:41:13.923Z,49.86
2023-06-28T23:43:41.059Z,49.81
2023-06-28T23:46:10.117Z,49.88
2023-06-28T23:48:36.795Z,49.42
2023-06-28T23:51:06.359Z,50.30
2023-06-28T23:53:42.862Z,49.08
2023-06-28T23:56:10.526Z,49.36
2023-06-28T23:58:38.628Z,48.94
